createdAt,value
2022-09-09T00:02:20.493Z,49.49
2022-09-09T00:07:24.235Z,49.37
2022-09-09T00:12:36.440Z,49.35
2022-09-09T00:17:41.671Z,49.37
2022-09-09T00:22:47.045Z,49.47
2022-09-09T00:27:51.269Z,49.54
2022-09-09T00:32:58.795Z,49.35
2022-09-09T00:38:03.688Z,49.42
2022-09-09T00:43:26.472Z,49.37
2022-09-09T00:48:32.090Z,49.25
2022-09-09T00:53:38.274Z,49.27
2022-09-09T00:58:43.060Z,48.89
2022-09-09T01:03:48.691Z,48.95
2022-09-09T01:09:09.414Z,48.97
2022-09-09T01:14:17.221Z,49.01
2022-09-09T01:19:22.204Z,49.23
2022-09-09T01:24:27.827Z,49.06
2022-09-09T01:29:40.981Z,49.14
2022-09-09T01:34:44.153Z,49.33
2022-09-09T01:39:47.026Z,49.18
2022-09-09T01:44:55.185Z,49.05
2022-09-09T01:49:57.849Z,49.12
2022-09-09T01:55:03.268Z,49.19
2022-09-09T02:00:14.077Z,49.24
2022-09-09T02:05:25.777Z,49.25
2022-09-09T02:10:32.395Z,49.09
2022-09-09T02:15:50.481Z,49.18
2022-09-09T02:20:53.505Z,49.09
2022-09-09T02:25:56.902Z,49.24
2022-09-09T02:31:03.059Z,49.10
2022-09-09T02:36:12.437Z,49.16
2022-09-09T02:41:17.509Z,49.08
2022-09-09T02:46:33.222Z,48.83
2022-09-09T02:51:38.740Z,48.79
2022-09-09T02:56:43.877Z,48.81
2022-09-09T03:01:49.498Z,48.76
2022-09-09T03:06:52.380Z,48.73
2022-09-09T03:11:57.007Z,48.77
2022-09-09T03:17:01.886Z,48.53
2022-09-09T03:22:07.742Z,48.81
2022-09-09T03:27:13.061Z,48.60
2022-09-09T03:32:18.514Z,48.58
2022-09-09T03:37:21.349Z,48.67
2022-09-09T03:42:28.739Z,48.73
2022-09-09T03:47:34.367Z,48.59
2022-09-09T03:52:43.105Z,48.47
2022-09-09T03:57:52.383Z,48.60
2022-09-09T04:02:57.673Z,48.43
2022-09-09T04:08:00.320Z,48.38
2022-09-09T04:13:03.309Z,48.45
2022-09-09T04:18:07.521Z,48.37
2022-09-09T04:23:10.174Z,48.34
2022-09-09T04:28:12.955Z,48.34
2022-09-09T04:33:18.150Z,48.30
2022-09-09T04:38:20.949Z,48.25
2022-09-09T04:43:26.822Z,48.37
2022-09-09T04:48:32.048Z,48.25
2022-09-09T04:53:35.986Z,48.29
2022-09-09T04:58:39.234Z,48.34
2022-09-09T05:03:46.263Z,48.30
2022-09-09T05:08:52.595Z,48.49
2022-09-09T05:13:59.810Z,48.50
2022-09-09T05:19:05.611Z,48.35
2022-09-09T05:24:19.170Z,48.55
2022-09-09T05:29:23.641Z,48.55
2022-09-09T05:34:28.181Z,48.47
2022-09-09T05:39:30.917Z,48.39
2022-09-09T05:44:33.996Z,48.57
2022-09-09T05:49:38.792Z,48.47
2022-09-09T05:54:42.724Z,48.69
2022-09-09T05:59:45.798Z,48.60
2022-09-09T06:04:50.434Z,48.60
2022-09-09T06:09:53.891Z,48.38
2022-09-09T06:14:56.760Z,48.66
2022-09-09T06:20:01.094Z,48.43
2022-09-09T06:25:04.630Z,48.43
2022-09-09T06:30:08.597Z,48.41
2022-09-09T06:35:12.876Z,48.35
2022-09-09T06:40:16.395Z,48.33
2022-09-09T06:45:19.330Z,48.32
2022-09-09T06:50:30.142Z,48.27
2022-09-09T06:55:33.192Z,48.29
2022-09-09T07:00:38.849Z,48.35
2022-09-09T07:05:43.132Z,48.19
2022-09-09T07:10:45.937Z,48.22
2022-09-09T07:15:48.921Z,48.24
2022-09-09T07:20:57.094Z,48.22
2022-09-09T07:26:00.974Z,48.38
2022-09-09T07:31:05.229Z,48.11
2022-09-09T07:36:11.142Z,48.30
2022-09-09T07:41:17.122Z,47.21
2022-09-09T07:46:21.289Z,47.00
2022-09-09T07:51:26.698Z,48.04
2022-09-09T07:56:30.084Z,48.25
2022-09-09T08:01:34.139Z,48.64
2022-09-09T08:06:39.603Z,48.73
2022-09-09T08:11:43.985Z,49.89
2022-09-09T08:16:48.515Z,49.49
2022-09-09T08:21:55.863Z,49.68
2022-09-09T08:26:58.663Z,49.60
2022-09-09T08:32:02.371Z,50.17
2022-09-09T08:37:06.975Z,49.99
2022-09-09T08:42:26.638Z,50.02
2022-09-09T08:47:36.629Z,50.12
2022-09-09T08:52:45.962Z,50.16
2022-09-09T08:57:49.272Z,50.66
2022-09-09T09:02:57.477Z,50.67
2022-09-09T09:08:07.269Z,51.00
2022-09-09T09:13:14.971Z,50.96
2022-09-09T09:18:17.765Z,50.69
2022-09-09T09:23:24.306Z,50.64
2022-09-09T09:28:31.130Z,50.75
2022-09-09T09:33:47.105Z,51.38
2022-09-09T09:44:27.539Z,51.64
2022-09-09T09:49:31.904Z,50.94
2022-09-09T09:54:39.341Z,51.24
2022-09-09T09:59:42.199Z,51.39
2022-09-09T10:04:51.172Z,51.19
2022-09-09T10:09:56.002Z,51.48
2022-09-09T10:15:02.548Z,50.99
2022-09-09T10:20:19.812Z,50.85
2022-09-09T10:25:34.257Z,51.52
2022-09-09T10:30:39.404Z,52.07
2022-09-09T10:35:44.202Z,51.68
2022-09-09T10:41:00.647Z,51.64
2022-09-09T10:46:07.048Z,51.41
2022-09-09T10:51:19.884Z,51.14
2022-09-09T10:56:24.588Z,51.16
2022-09-09T11:01:28.850Z,51.20
2022-09-09T11:06:33.610Z,50.89
2022-09-09T11:11:40.991Z,50.86
2022-09-09T11:16:44.517Z,50.74
2022-09-09T11:21:48.070Z,50.69
2022-09-09T11:26:53.737Z,50.28
2022-09-09T11:32:03.812Z,50.43
2022-09-09T11:37:19.275Z,50.41
2022-09-09T11:42:25.073Z,50.33
2022-09-09T11:47:30.594Z,49.95
2022-09-09T11:52:38.573Z,50.02
2022-09-09T11:57:48.932Z,50.24
2022-09-09T12:02:52.117Z,50.02
2022-09-09T12:07:57.133Z,49.88
2022-09-09T12:13:16.217Z,49.75
2022-09-09T12:18:24.384Z,49.70
2022-09-09T12:23:33.124Z,49.36
2022-09-09T12:28:47.039Z,49.39
2022-09-09T12:33:49.639Z,48.35
2022-09-09T12:38:53.344Z,48.39
2022-09-09T12:44:08.894Z,48.70
2022-09-09T12:49:26.701Z,48.69
2022-09-09T12:54:29.542Z,48.72
2022-09-09T12:59:38.767Z,48.61
2022-09-09T13:04:41.402Z,48.34
2022-09-09T13:09:44.550Z,48.76
2022-09-09T13:14:49.436Z,48.53
2022-09-09T13:19:53.503Z,48.17
2022-09-09T13:25:03.411Z,47.90
2022-09-09T13:30:24.647Z,47.34
2022-09-09T13:35:27.716Z,47.36
2022-09-09T13:40:31.336Z,48.02
2022-09-09T13:45:35.776Z,48.29
2022-09-09T13:50:38.555Z,48.50
2022-09-09T13:55:41.419Z,48.59
2022-09-09T14:00:45.734Z,48.59
2022-09-09T14:05:48.387Z,48.89
2022-09-09T14:10:51.389Z,48.73
2022-09-09T14:15:55.527Z,48.85
2022-09-09T14:20:58.191Z,48.63
2022-09-09T14:26:00.768Z,48.10
2022-09-09T14:31:06.453Z,47.32
2022-09-09T14:36:09.440Z,47.87
2022-09-09T14:41:12.652Z,47.87
2022-09-09T14:46:17.365Z,48.14
2022-09-09T14:51:21.428Z,48.60
2022-09-09T14:56:25.413Z,48.32
2022-09-09T15:01:30.279Z,48.17
2022-09-09T15:06:33.991Z,48.12
2022-09-09T15:11:38.696Z,46.47
2022-09-09T15:16:42.929Z,45.22
2022-09-09T15:21:45.496Z,46.83
2022-09-09T15:26:48.741Z,47.32
2022-09-09T15:31:52.830Z,47.61
2022-09-09T15:36:56.291Z,47.93
2022-09-09T15:41:58.863Z,48.35
2022-09-09T15:47:02.805Z,48.28
2022-09-09T15:52:05.581Z,48.52
2022-09-09T15:57:09.320Z,48.57
2022-09-09T16:02:13.660Z,48.61
2022-09-09T16:07:16.359Z,48.67
2022-09-09T16:12:19.019Z,48.83
2022-09-09T16:17:23.172Z,49.11
2022-09-09T16:22:25.796Z,49.23
2022-09-09T16:27:28.508Z,46.55
2022-09-09T16:32:32.476Z,46.56
2022-09-09T16:37:35.095Z,46.00
2022-09-09T16:42:39.681Z,45.53
2022-09-09T16:47:44.665Z,44.91
2022-09-09T16:52:47.297Z,44.82
2022-09-09T16:57:50.458Z,45.08
2022-09-09T17:02:54.637Z,46.32
2022-09-09T17:07:58.346Z,46.37
2022-09-09T17:13:02.567Z,46.22
2022-09-09T17:18:06.911Z,46.92
2022-09-09T17:23:10.139Z,46.34
2022-09-09T17:28:13.148Z,46.23
2022-09-09T17:33:17.407Z,46.26
2022-09-09T17:38:20.247Z,46.29
2022-09-09T17:43:22.840Z,46.02
2022-09-09T17:48:28.277Z,46.25
2022-09-09T17:53:31.717Z,46.72
2022-09-09T17:58:34.458Z,45.97
2022-09-09T18:03:38.728Z,45.94
2022-09-09T18:08:41.519Z,46.08
2022-09-09T18:13:44.226Z,45.93
2022-09-09T18:18:49.428Z,46.36
2022-09-09T18:23:53.248Z,46.30
2022-09-09T18:28:57.194Z,46.63
2022-09-09T18:34:02.842Z,46.71
2022-09-09T18:39:06.221Z,46.78
2022-09-09T18:44:11.361Z,46.68
2022-09-09T18:49:15.492Z,46.88
2022-09-09T18:54:19.630Z,46.76
2022-09-09T18:59:23.834Z,46.73
2022-09-09T19:04:27.873Z,46.57
2022-09-09T19:09:32.418Z,46.44
2022-09-09T19:14:35.317Z,46.30
2022-09-09T19:19:42.325Z,46.42
2022-09-09T19:24:45.833Z,46.15
2022-09-09T19:29:48.576Z,46.27
2022-09-09T19:34:52.763Z,46.21
2022-09-09T19:39:55.469Z,45.95
2022-09-09T19:44:58.265Z,46.02
2022-09-09T19:50:02.192Z,46.34
2022-09-09T19:55:05.415Z,46.26
2022-09-09T20:00:10.093Z,46.09
2022-09-09T20:05:16.259Z,46.02
2022-09-09T20:10:18.863Z,45.69
2022-09-09T20:15:21.504Z,46.05
2022-09-09T20:20:25.477Z,45.76
2022-09-09T20:25:28.145Z,45.78
2022-09-09T20:30:30.880Z,46.02
2022-09-09T20:35:36.480Z,45.73
2022-09-09T20:40:39.232Z,46.03
2022-09-09T20:45:43.749Z,45.57
2022-09-09T20:50:47.705Z,46.03
2022-09-09T20:55:50.819Z,45.72
2022-09-09T21:01:00.653Z,45.75
2022-09-09T21:06:05.093Z,45.26
2022-09-09T21:11:07.798Z,46.01
2022-09-09T21:16:13.742Z,45.25
2022-09-09T21:21:19.174Z,45.81
2022-09-09T21:26:22.810Z,45.76
2022-09-09T21:31:28.269Z,45.45
2022-09-09T21:36:33.733Z,45.43
2022-09-09T21:41:36.424Z,45.62
2022-09-09T21:46:39.030Z,45.61
2022-09-09T21:51:43.028Z,45.67
2022-09-09T21:56:45.726Z,45.49
2022-09-09T22:01:48.560Z,45.52
2022-09-09T22:06:52.743Z,45.51
2022-09-09T22:11:55.340Z,45.43
2022-09-09T22:16:58.233Z,45.49
2022-09-09T22:22:02.234Z,45.20
2022-09-09T22:27:05.678Z,45.34
2022-09-09T22:32:09.817Z,45.21
2022-09-09T22:37:13.748Z,45.52
2022-09-09T22:42:16.374Z,44.91
2022-09-09T22:47:18.991Z,45.08
2022-09-09T22:52:24.545Z,45.19
2022-09-09T22:57:27.263Z,45.42
2022-09-09T23:02:30.792Z,45.38
2022-09-09T23:07:34.750Z,45.62
2022-09-09T23:12:37.679Z,45.68
2022-09-09T23:17:40.919Z,45.52
2022-09-09T23:22:45.135Z,45.75
2022-09-09T23:27:48.830Z,46.00
2022-09-09T23:32:51.684Z,45.99
2022-09-09T23:37:55.651Z,46.00
2022-09-09T23:42:58.396Z,45.97
2022-09-09T23:48:00.993Z,46.13
2022-09-09T23:53:04.932Z,46.26
2022-09-09T23:58:07.533Z,46.26
